Aérodrome :
LOGIN :

S'inscrire | Disclaimer

   EN    FR    IT 

 










Légende :    VFR   VFR Marginal   IFR   IFR Intensif   IFR Très Intensif
Visi : 
Plafond : 
>= 8 km
>= 3000ft
5 à 8 km
1000 à 3000 ft
1500m à 5 km
500 à 1000 ft
800 à 1500m
200 à 500 ft
< 800m
< 200 ft
Symboles :   Orages  Brouillard  Fortes neiges  Fortes précipitations  Vent > 20 kt
SIGMETs :   Divers  Orages  Givrage  Turbulence  Onde Orograph.  Cendres Volcan.







- Altitude de l'aérodrome : 53 ft
- Code IATA : HAM


EDDH - Hamburg

DERNIER METAR :
  • 220820Z 33008KT 9999 FEW046 12/08 Q1028 NOSIG

METARs EXPIRÉS :
  • 220750Z 33007KT 300V360 9999 FEW045 11/08 Q1028 NOSIG
  • 220720Z 33006KT 9999 FEW026 10/09 Q1027 NOSIG
  • 220650Z 33006KT 9999 FEW046 11/09 Q1027 NOSIG
  • 220620Z 33007KT 9999 SCT045 11/09 Q1026 NOSIG
  • 220550Z 34007KT 320V020 9999 FEW023 BKN045 11/10 Q1026 NOSIG

TAF TAF EDDH
Valide du 22 à 06h jusqu'au 23 à 12h UTC


220500Z 2206/2312 33012KT 9999 SCT035
PROB30
TEMPO 2209/2214 35015G25KT
BECMG 2216/2218 23007KT
BECMG 2221/2224 24013KT
BECMG 2302/2305 26015G30KT SCT007 BKN012
TEMPO 2305/2312 28020G40KT 3500 RADZ SCT004 BKN006
PROB30
TEMPO 2306/2312 29025G45KT 2000 RA SCT002 BKN004
Pas de NOTAMs connus pour ce terrain.



MET'MAP, la Météo Aéronautique d'un coup d'oeil ! - Copyright ORBIFLY Décembre 2007 - Disclaimer

ORBIFLY MET'MAP TEAM :

Programmation & Développement : Alexandra Zaïnal
Conception & Développement : Baudouin d'Aumeries
Co-Programmation & Développement : Marc-Olivier Méhu
Soutien technique & logistique : Manuel Goepfert

Contact : metmap@orbifly.com




SOURCES & CREDITS :

   NOAA